CheckWX is a tool to help pilots better visualize weather data.  It is not intended as a substitute for an official pre-flight weather briefing.

20:52:57 UTC

KDYS METAR
Dyess AFB Airport
Abilene, Texas, USA
Current

42 mins ago

KDYS 232011Z AUTO 03005KT 10SM BKN022 OVC030 23/15 A2996 RMK AO2 CIG 022V032 SLP112 $
Observed
Apr-23 @ 20:11 UTC
Wind
  • 030° at 5 KTS
Visibility
10 SM
Flight Rules
MVFR
Cloud Levels
  • Broken at 2,200' AGL
  • Overcast at 3,000' AGL
Temperature
23°C / 73°F
Dewpoint
15°C / 59°F
Humidity
61%
Altimeter
29.96" Hg
Pressure
1014.52 hPa
Previous

57 mins ago

KDYS 231956Z AUTO 01009KT 10SM FEW024 BKN030 BKN035 23/16 A2996 RMK AO2 SLP112 P0080 T02270155 $
Observed
Apr-23 @ 19:56 UTC
Wind
  • 010° at 9 KTS
Visibility
10 SM
Flight Rules
MVFR
Cloud Levels
  • Few at 2,400' AGL
  • Broken at 3,000' AGL
  • Broken at 3,500' AGL
Temperature
23°C / 73°F
Dewpoint
16°C / 61°F
Humidity
65%
Altimeter
29.96" Hg
Pressure
1014.52 hPa
Current Rain
0.8"
Previous

2 hours ago

KDYS 231856Z 01011KT 10SM SCT100 SCT160 BKN190 21/16 A2998 RMK AO2A LTG DSNT NE SLP121 T02120155 $
Observed
Apr-23 @ 18:56 UTC
Wind
  • 010° at 11 KTS
Visibility
10 SM
Flight Rules
VFR
Cloud Levels
  • Scattered at 10,000' AGL
  • Scattered at 16,000' AGL
  • Broken at 19,000' AGL
Temperature
21°C / 70°F
Dewpoint
16°C / 61°F
Humidity
73%
Altimeter
29.98" Hg
Pressure
1015.22 hPa